Terminal Aerodrome Forecast
Issued by NWS

Current Version | Previous Version | Text Only | Print | Product List | Glossary Off
Versions: 1 2 3 4 5 6 7 8 9 10 11 12 13 14 15 16 17 18 19

000
FTUS41 KRNK 161720
TAFLWB
TAF
KLWB 161720Z 1618/1718 30013G25KT P6SM FEW040 SCT090
     FM162300 30008G19KT P6SM SCT250
     FM170200 28004KT P6SM BKN090
     FM171200 24004KT P6SM SCT090=

USA.gov is the U.S. government's official web portal to all federal, state and local government web resources and services.